createdAt,value
2019-04-22T00:01:36.929Z,19.70
2019-04-22T00:04:13.284Z,19.70
2019-04-22T00:07:03.229Z,19.70
2019-04-22T00:09:41.824Z,19.70
2019-04-22T00:12:06.344Z,19.70
2019-04-22T00:14:38.810Z,19.50
2019-04-22T00:17:18.488Z,19.50
2019-04-22T00:19:43.698Z,19.50
2019-04-22T00:22:20.530Z,19.50
2019-04-22T00:24:44.560Z,19.40
2019-04-22T00:27:20.631Z,19.40
2019-04-22T00:30:02.491Z,19.40
2019-04-22T00:32:39.557Z,19.40
2019-04-22T00:35:13.335Z,19.20
2019-04-22T00:37:43.854Z,19.00
2019-04-22T00:40:25.284Z,18.90
2019-04-22T00:42:50.310Z,18.80
2019-04-22T00:45:24.913Z,18.70
2019-04-22T00:47:43.575Z,18.70
2019-04-22T00:50:23.852Z,18.60
2019-04-22T00:52:59.821Z,18.60
2019-04-22T00:55:28.770Z,18.60
2019-04-22T00:57:56.167Z,18.60
2019-04-22T01:00:31.052Z,18.60
2019-04-22T01:03:07.393Z,18.50
2019-04-22T01:05:36.086Z,18.50
2019-04-22T01:08:09.592Z,18.50
2019-04-22T01:10:38.998Z,18.40
2019-04-22T01:13:05.585Z,18.40
2019-04-22T01:15:40.767Z,18.30
2019-04-22T01:18:03.688Z,18.30
2019-04-22T01:23:10.966Z,18.40
2019-04-22T01:25:41.414Z,18.30
2019-04-22T01:28:09.213Z,18.40
2019-04-22T01:30:32.454Z,18.20
2019-04-22T01:33:05.885Z,18.30
2019-04-22T01:36:01.402Z,18.20
2019-04-22T01:38:43.357Z,18.20
2019-04-22T01:41:16.416Z,18.10
2019-04-22T01:43:53.625Z,18.20
2019-04-22T01:46:16.306Z,18.20
2019-04-22T01:48:47.296Z,18.20
2019-04-22T01:51:22.274Z,18.20
2019-04-22T01:53:58.451Z,18.20
2019-04-22T01:56:27.262Z,18.10
2019-04-22T01:58:44.089Z,18.10
2019-04-22T02:01:30.845Z,18.10
2019-04-22T02:04:01.219Z,18.10
2019-04-22T02:06:33.176Z,18.00
2019-04-22T02:11:41.749Z,17.70
2019-04-22T02:14:04.873Z,17.60
2019-04-22T02:16:48.165Z,17.60
2019-04-22T02:19:11.692Z,17.60
2019-04-22T02:21:42.841Z,17.60
2019-04-22T02:24:18.059Z,17.60
2019-04-22T02:26:48.212Z,17.70
2019-04-22T02:29:21.934Z,17.70
2019-04-22T02:32:02.876Z,17.60
2019-04-22T02:37:00.196Z,17.70
2019-04-22T02:39:29.820Z,17.70
2019-04-22T02:42:06.003Z,17.60
2019-04-22T02:47:15.586Z,17.70
2019-04-22T02:52:15.280Z,17.60
2019-04-22T02:57:26.138Z,17.60
2019-04-22T02:59:46.945Z,17.50
2019-04-22T03:02:19.012Z,17.50
2019-04-22T03:04:51.279Z,17.50
2019-04-22T03:07:18.759Z,17.50
2019-04-22T03:14:55.140Z,17.30
2019-04-22T03:17:28.665Z,17.40
2019-04-22T03:27:29.951Z,17.40
2019-04-22T03:37:53.370Z,17.00
2019-04-22T03:40:28.223Z,16.90
2019-04-22T03:43:02.433Z,16.90
2019-04-22T03:48:01.522Z,16.80
2019-04-22T03:55:33.095Z,16.70
2019-04-22T04:00:40.894Z,16.90
2019-04-22T04:03:00.921Z,16.80
2019-04-22T04:08:19.639Z,16.70
2019-04-22T04:13:08.242Z,16.50
2019-04-22T04:15:49.441Z,16.30
2019-04-22T04:18:11.408Z,16.30
2019-04-22T04:20:45.310Z,16.10
2019-04-22T04:23:37.739Z,15.90
2019-04-22T04:28:47.182Z,16.00
2019-04-22T04:30:48.750Z,15.70
2019-04-22T04:33:22.823Z,15.50
2019-04-22T04:38:21.196Z,15.40
2019-04-22T04:40:58.217Z,15.60
2019-04-22T04:43:35.609Z,15.70
2019-04-22T04:48:41.973Z,15.80
2019-04-22T04:51:16.309Z,15.70
2019-04-22T04:53:34.091Z,15.70
2019-04-22T04:56:11.825Z,15.70
2019-04-22T04:58:56.371Z,15.70
2019-04-22T05:01:20.475Z,15.70
2019-04-22T05:03:52.928Z,15.70
2019-04-22T05:06:24.286Z,15.70
2019-04-22T05:09:01.453Z,15.60
2019-04-22T05:13:57.403Z,15.80
2019-04-22T05:18:52.762Z,16.00
2019-04-22T05:21:16.365Z,16.00
2019-04-22T05:23:58.507Z,16.10
2019-04-22T05:28:51.378Z,16.10
2019-04-22T05:31:43.560Z,16.10
2019-04-22T05:34:14.644Z,16.10
2019-04-22T05:36:48.069Z,16.00
2019-04-22T05:39:16.798Z,16.20
2019-04-22T05:41:48.726Z,16.20
2019-04-22T05:44:22.632Z,16.30
2019-04-22T05:46:56.245Z,16.00
2019-04-22T05:49:26.177Z,15.80
2019-04-22T05:51:55.470Z,15.50
2019-04-22T05:54:27.799Z,15.50
2019-04-22T05:56:55.108Z,15.50
2019-04-22T05:59:31.753Z,15.50
2019-04-22T06:02:05.023Z,15.70
2019-04-22T06:04:39.130Z,15.60
2019-04-22T06:07:06.683Z,15.40
2019-04-22T06:09:32.686Z,15.40
2019-04-22T06:12:10.280Z,15.60
2019-04-22T06:14:37.097Z,15.80
2019-04-22T06:19:44.889Z,16.00
2019-04-22T06:22:22.763Z,16.20
2019-04-22T06:24:49.118Z,16.50
2019-04-22T06:27:21.801Z,16.90
2019-04-22T06:29:51.263Z,17.20
2019-04-22T06:32:26.499Z,17.60
2019-04-22T06:35:07.593Z,17.60
2019-04-22T06:37:26.102Z,17.70
2019-04-22T06:39:51.171Z,17.70
2019-04-22T06:42:28.764Z,17.90
2019-04-22T06:45:07.272Z,17.90
2019-04-22T06:47:44.103Z,17.90
2019-04-22T06:50:03.000Z,18.40
2019-04-22T06:52:28.118Z,18.80
2019-04-22T06:55:07.889Z,19.30
2019-04-22T06:57:52.751Z,19.60
2019-04-22T07:00:28.902Z,19.90
2019-04-22T07:03:13.811Z,20.20
2019-04-22T07:05:57.030Z,20.40
2019-04-22T07:08:47.576Z,20.40
2019-04-22T07:10:49.163Z,20.50
2019-04-22T07:13:23.373Z,20.40
2019-04-22T07:18:26.158Z,20.60
2019-04-22T07:20:57.821Z,20.50
2019-04-22T07:23:27.087Z,20.20
2019-04-22T07:25:57.906Z,20.20
2019-04-22T07:28:27.384Z,20.20
2019-04-22T07:38:32.808Z,20.70
2019-04-22T07:41:05.642Z,21.00
2019-04-22T07:43:51.657Z,21.30
2019-04-22T07:46:27.938Z,21.30
2019-04-22T07:48:49.894Z,21.50
2019-04-22T07:51:16.847Z,21.70
2019-04-22T07:53:57.507Z,22.00
2019-04-22T07:56:29.384Z,22.10
2019-04-22T07:59:07.087Z,22.10
2019-04-22T08:01:30.564Z,22.30
2019-04-22T08:04:07.212Z,22.30
2019-04-22T08:06:43.626Z,22.10
2019-04-22T08:09:07.875Z,22.40
2019-04-22T08:14:07.561Z,22.70
2019-04-22T08:16:45.098Z,23.00
2019-04-22T08:19:15.790Z,23.20
2019-04-22T08:21:46.322Z,23.60
2019-04-22T08:24:20.171Z,23.70
2019-04-22T08:29:23.182Z,23.90
2019-04-22T08:31:54.820Z,24.10
2019-04-22T08:37:24.163Z,23.20
2019-04-22T08:39:29.715Z,22.70
2019-04-22T08:41:54.803Z,22.40
2019-04-22T08:44:52.086Z,21.90
2019-04-22T08:49:45.574Z,21.70
2019-04-22T08:52:10.808Z,21.70
2019-04-22T08:54:36.283Z,21.50
2019-04-22T08:57:10.794Z,21.40
2019-04-22T08:59:46.872Z,21.60
2019-04-22T09:02:17.471Z,21.70
2019-04-22T09:04:45.457Z,21.80
2019-04-22T09:07:20.303Z,22.10
2019-04-22T09:09:47.247Z,22.20
2019-04-22T09:12:23.985Z,22.10
2019-04-22T09:14:45.862Z,22.00
2019-04-22T09:17:22.901Z,22.00
2019-04-22T09:19:54.573Z,21.80
2019-04-22T09:22:24.733Z,21.60
2019-04-22T09:24:54.055Z,21.60
2019-04-22T09:27:34.873Z,21.70
2019-04-22T09:30:01.141Z,22.00
2019-04-22T09:32:34.425Z,22.30
2019-04-22T09:37:38.187Z,22.90
2019-04-22T09:40:12.242Z,23.10
2019-04-22T09:42:39.560Z,23.40
2019-04-22T09:45:06.050Z,23.40
2019-04-22T09:47:42.441Z,23.40
2019-04-22T09:50:09.802Z,23.80
2019-04-22T09:52:43.481Z,24.40
2019-04-22T09:55:29.789Z,24.30
2019-04-22T09:57:49.128Z,24.50
2019-04-22T10:00:37.639Z,24.60
2019-04-22T10:02:55.895Z,24.60
2019-04-22T10:05:20.580Z,24.60
2019-04-22T10:07:52.475Z,24.50
2019-04-22T10:10:20.256Z,24.30
2019-04-22T10:12:57.111Z,24.10
2019-04-22T10:15:26.740Z,23.80
2019-04-22T10:17:58.054Z,23.30
2019-04-22T10:20:36.310Z,23.30
2019-04-22T10:23:06.246Z,23.20
2019-04-22T10:25:35.178Z,23.10
2019-04-22T10:28:09.194Z,23.10
2019-04-22T10:30:52.177Z,23.30
2019-04-22T10:33:04.494Z,23.20
2019-04-22T10:35:20.977Z,23.20
2019-04-22T10:37:50.058Z,23.20
2019-04-22T10:40:23.640Z,23.20
2019-04-22T10:42:53.724Z,23.00
2019-04-22T10:45:23.982Z,22.80
2019-04-22T10:47:54.233Z,22.80
2019-04-22T10:50:39.307Z,22.70
2019-04-22T10:53:11.193Z,22.50
2019-04-22T10:55:43.475Z,22.50
2019-04-22T10:58:12.972Z,22.40
2019-04-22T11:00:43.373Z,22.30
2019-04-22T11:03:14.051Z,22.10
2019-04-22T11:05:46.295Z,21.90
2019-04-22T11:08:25.594Z,22.00
2019-04-22T11:11:05.787Z,21.90
2019-04-22T11:13:20.094Z,21.70
2019-04-22T11:15:50.978Z,21.70
2019-04-22T11:18:21.039Z,21.50
2019-04-22T11:20:51.556Z,21.40
2019-04-22T11:23:22.593Z,21.60
2019-04-22T11:25:53.953Z,21.60
2019-04-22T11:28:25.436Z,21.60
2019-04-22T11:30:56.356Z,21.60
2019-04-22T11:33:26.745Z,21.60
2019-04-22T11:35:57.559Z,21.60
2019-04-22T11:38:28.840Z,21.60
2019-04-22T11:41:00.031Z,21.50
2019-04-22T11:43:30.517Z,21.20
2019-04-22T11:46:00.802Z,21.30
2019-04-22T11:48:31.164Z,21.50
2019-04-22T11:51:02.009Z,21.40
2019-04-22T11:53:32.307Z,21.30
2019-04-22T11:56:02.878Z,21.30
2019-04-22T11:58:33.308Z,21.40
2019-04-22T12:01:04.727Z,21.40
2019-04-22T12:03:35.788Z,21.40
2019-04-22T12:06:05.983Z,21.30
2019-04-22T12:08:37.353Z,21.30
2019-04-22T12:11:08.314Z,21.20
2019-04-22T12:13:39.967Z,21.20
2019-04-22T12:16:11.497Z,21.10
2019-04-22T12:18:42.993Z,21.30
2019-04-22T12:21:13.136Z,21.30
2019-04-22T12:23:43.534Z,21.20
2019-04-22T12:26:17.509Z,21.20
2019-04-22T12:28:45.153Z,21.20
2019-04-22T12:31:15.537Z,21.30
2019-04-22T12:33:45.719Z,21.20
2019-04-22T12:36:15.602Z,21.30
2019-04-22T12:38:45.426Z,21.40
2019-04-22T12:41:17.913Z,21.30
2019-04-22T12:43:49.259Z,21.40
2019-04-22T12:46:20.384Z,21.40
2019-04-22T12:48:52.110Z,21.40
2019-04-22T12:51:23.096Z,21.30
2019-04-22T12:53:55.142Z,21.10
2019-04-22T12:56:25.836Z,21.10
2019-04-22T12:58:55.915Z,21.10
2019-04-22T13:01:26.835Z,21.20
2019-04-22T13:04:02.066Z,21.40
2019-04-22T13:06:28.340Z,21.30
2019-04-22T13:09:00.034Z,21.40
2019-04-22T13:11:32.778Z,21.30
2019-04-22T13:14:02.959Z,21.50
2019-04-22T13:16:33.174Z,21.50
2019-04-22T13:19:07.373Z,21.60
2019-04-22T13:21:36.504Z,21.60
2019-04-22T13:24:07.063Z,21.60
2019-04-22T13:26:38.135Z,21.50
2019-04-22T13:29:09.057Z,21.50
2019-04-22T13:31:40.433Z,21.40
2019-04-22T13:34:19.976Z,21.30
2019-04-22T13:36:44.916Z,21.40
2019-04-22T13:39:13.380Z,21.40
2019-04-22T13:41:48.580Z,21.40
2019-04-22T13:44:14.752Z,21.50
2019-04-22T13:47:04.116Z,21.60
2019-04-22T13:49:49.482Z,21.70
2019-04-22T13:52:20.685Z,21.70
2019-04-22T13:54:48.405Z,21.60
2019-04-22T13:57:09.060Z,21.40
2019-04-22T13:59:30.271Z,21.30
2019-04-22T14:02:12.758Z,21.40
2019-04-22T14:04:56.736Z,21.30
2019-04-22T14:07:26.655Z,21.30
2019-04-22T14:09:56.494Z,21.30
2019-04-22T14:12:26.725Z,21.30
2019-04-22T14:14:58.278Z,21.20
2019-04-22T14:17:29.367Z,21.20
2019-04-22T14:20:00.452Z,21.10
2019-04-22T14:22:30.570Z,21.10
2019-04-22T14:25:00.769Z,21.20
2019-04-22T14:27:41.816Z,21.20
2019-04-22T14:30:02.126Z,21.10
2019-04-22T14:32:33.899Z,21.10
2019-04-22T14:35:09.274Z,21.30
2019-04-22T14:37:40.279Z,21.40
2019-04-22T14:40:12.317Z,21.40
2019-04-22T14:43:00.828Z,21.30
2019-04-22T14:45:41.807Z,21.40
2019-04-22T14:48:11.113Z,21.40
2019-04-22T14:50:38.793Z,21.40
2019-04-22T14:53:08.221Z,21.40
2019-04-22T14:55:25.008Z,21.30
2019-04-22T14:57:52.588Z,21.20
2019-04-22T15:00:24.136Z,21.10
2019-04-22T15:02:55.418Z,21.00
2019-04-22T15:05:26.053Z,21.20
2019-04-22T15:07:57.191Z,21.10
2019-04-22T15:10:28.226Z,20.90
2019-04-22T15:13:00.581Z,20.80
2019-04-22T15:15:31.331Z,20.80
2019-04-22T15:18:03.110Z,20.60
2019-04-22T15:20:46.486Z,20.60
2019-04-22T15:23:16.866Z,20.40
2019-04-22T15:25:48.453Z,20.40
2019-04-22T15:28:19.595Z,20.40
2019-04-22T15:31:09.235Z,20.40
2019-04-22T15:33:39.522Z,20.30
2019-04-22T15:36:10.021Z,20.30
2019-04-22T15:38:40.542Z,20.30
2019-04-22T15:41:12.481Z,20.30
2019-04-22T15:43:43.662Z,20.20
2019-04-22T15:46:14.180Z,20.20
2019-04-22T15:48:44.226Z,20.30
2019-04-22T15:51:14.139Z,20.30
2019-04-22T15:53:45.348Z,20.20
2019-04-22T15:56:16.731Z,20.30
2019-04-22T15:58:47.968Z,20.20
2019-04-22T16:01:25.917Z,20.10
2019-04-22T16:03:50.313Z,20.10
2019-04-22T16:06:21.923Z,20.20
2019-04-22T16:08:52.155Z,20.20
2019-04-22T16:11:22.318Z,20.30
2019-04-22T16:13:52.525Z,20.20
2019-04-22T16:16:22.888Z,20.20
2019-04-22T16:18:54.181Z,20.10
2019-04-22T16:21:32.747Z,20.10
2019-04-22T16:24:04.540Z,20.00
2019-04-22T16:26:39.915Z,20.00
2019-04-22T16:29:15.497Z,20.00
2019-04-22T16:31:47.451Z,19.90
2019-04-22T16:34:17.461Z,19.80
2019-04-22T16:36:47.382Z,19.80
2019-04-22T16:39:18.555Z,19.70
2019-04-22T16:41:48.712Z,19.80
2019-04-22T16:44:18.735Z,19.80
2019-04-22T16:46:49.843Z,19.70
2019-04-22T16:49:21.355Z,19.70
2019-04-22T16:51:52.068Z,19.90
2019-04-22T16:54:22.207Z,19.70
2019-04-22T16:56:52.331Z,19.60
2019-04-22T16:59:22.649Z,19.50
2019-04-22T17:05:02.023Z,19.40
2019-04-22T17:07:32.164Z,19.40
2019-04-22T17:10:04.013Z,19.30
2019-04-22T17:12:45.760Z,19.40
2019-04-22T17:15:08.673Z,19.30
2019-04-22T17:17:39.160Z,19.10
2019-04-22T17:20:09.188Z,19.10
2019-04-22T17:22:39.713Z,19.10
2019-04-22T17:25:09.649Z,19.10
2019-04-22T17:27:39.527Z,19.20
2019-04-22T17:30:10.519Z,19.30
2019-04-22T17:32:43.228Z,19.20
2019-04-22T17:35:12.442Z,19.20
2019-04-22T17:37:42.894Z,19.30
2019-04-22T17:40:30.169Z,19.30
2019-04-22T17:43:06.953Z,19.30
2019-04-22T17:45:58.444Z,19.20
2019-04-22T17:48:32.609Z,19.10
2019-04-22T17:51:16.059Z,19.20
2019-04-22T17:53:46.915Z,19.20
2019-04-22T17:56:15.619Z,19.10
2019-04-22T17:58:48.424Z,19.20
2019-04-22T18:01:19.131Z,19.20
2019-04-22T18:03:37.480Z,19.20
2019-04-22T18:06:07.120Z,19.20
2019-04-22T18:08:50.699Z,19.30
2019-04-22T18:11:31.403Z,19.30
2019-04-22T18:14:01.770Z,19.30
2019-04-22T18:16:29.469Z,19.20
2019-04-22T18:18:59.941Z,19.10
2019-04-22T18:21:28.882Z,19.10
2019-04-22T18:23:53.024Z,19.10
2019-04-22T18:26:33.382Z,19.20
2019-04-22T18:29:07.500Z,19.10
2019-04-22T18:31:30.772Z,19.30
2019-04-22T18:34:04.120Z,19.30
2019-04-22T18:36:37.034Z,19.20
2019-04-22T18:39:21.299Z,19.30
2019-04-22T18:41:46.643Z,19.30
2019-04-22T18:44:19.832Z,19.30
2019-04-22T18:46:50.888Z,19.40
2019-04-22T18:49:17.036Z,19.50
2019-04-22T18:51:51.828Z,19.50
2019-04-22T18:54:33.404Z,19.60
2019-04-22T18:56:59.641Z,19.70
2019-04-22T18:59:18.486Z,19.60
2019-04-22T19:01:43.903Z,19.60
2019-04-22T19:04:19.885Z,19.80
2019-04-22T19:07:07.273Z,19.70
2019-04-22T19:09:42.778Z,19.70
2019-04-22T19:12:33.826Z,19.70
2019-04-22T19:15:05.461Z,19.70
2019-04-22T19:17:40.462Z,19.50
2019-04-22T19:20:12.406Z,19.50
2019-04-22T19:22:36.233Z,19.60
2019-04-22T19:25:02.983Z,19.40
2019-04-22T19:27:35.958Z,19.40
2019-04-22T19:30:14.403Z,19.40
2019-04-22T19:32:47.741Z,19.50
2019-04-22T19:35:09.393Z,19.20
2019-04-22T19:37:39.774Z,18.80
2019-04-22T19:40:40.415Z,18.80
2019-04-22T19:45:16.045Z,18.90
2019-04-22T19:47:59.908Z,18.70
2019-04-22T19:50:28.108Z,18.60
2019-04-22T19:53:01.638Z,18.60
2019-04-22T19:55:29.407Z,18.80
2019-04-22T19:57:57.299Z,18.90
2019-04-22T20:00:42.021Z,18.90
2019-04-22T20:03:36.651Z,18.70
2019-04-22T20:06:05.583Z,18.40
2019-04-22T20:08:36.684Z,18.30
2019-04-22T20:11:15.142Z,18.50
2019-04-22T20:13:46.098Z,18.70
2019-04-22T20:16:02.002Z,18.90
2019-04-22T20:18:50.128Z,19.00
2019-04-22T20:21:18.268Z,19.10
2019-04-22T20:23:39.595Z,19.10
2019-04-22T20:26:12.513Z,19.10
2019-04-22T20:28:55.965Z,19.40
2019-04-22T20:31:24.641Z,19.40
2019-04-22T20:33:58.061Z,19.50
2019-04-22T20:36:49.095Z,19.40
2019-04-22T20:38:56.586Z,19.50
2019-04-22T20:41:27.424Z,19.60
2019-04-22T20:44:05.173Z,19.60
2019-04-22T20:46:30.565Z,19.50
2019-04-22T20:49:27.668Z,19.50
2019-04-22T20:54:22.723Z,19.50
2019-04-22T20:56:59.695Z,19.60
2019-04-22T20:59:29.940Z,19.60
2019-04-22T21:01:58.110Z,19.50
2019-04-22T21:04:27.789Z,19.50
2019-04-22T21:07:01.944Z,19.40
2019-04-22T21:09:35.429Z,19.50
2019-04-22T21:12:02.204Z,19.40
2019-04-22T21:14:35.696Z,19.20
2019-04-22T21:17:15.351Z,19.20
2019-04-22T21:19:54.681Z,19.10
2019-04-22T21:22:22.185Z,19.20
2019-04-22T21:24:46.078Z,19.20
2019-04-22T21:27:32.492Z,19.20
2019-04-22T21:29:48.379Z,19.10
2019-04-22T21:32:28.476Z,19.20
2019-04-22T21:35:03.855Z,19.20
2019-04-22T21:37:34.647Z,19.20
2019-04-22T21:39:51.914Z,19.30
2019-04-22T21:42:31.978Z,19.30
2019-04-22T21:45:00.096Z,19.30
2019-04-22T21:47:48.806Z,19.30
2019-04-22T21:50:24.127Z,19.30
2019-04-22T21:52:35.299Z,19.20
2019-04-22T21:55:16.655Z,19.30
2019-04-22T21:57:51.113Z,19.30
2019-04-22T22:00:31.626Z,19.10
2019-04-22T22:02:59.146Z,19.20
2019-04-22T22:05:20.087Z,19.20
2019-04-22T22:07:49.421Z,19.20
2019-04-22T22:10:33.855Z,19.20
2019-04-22T22:13:09.679Z,19.30
2019-04-22T22:15:28.945Z,19.20
2019-04-22T22:18:06.856Z,19.30
2019-04-22T22:20:43.372Z,19.40
2019-04-22T22:23:15.078Z,19.40
2019-04-22T22:25:39.455Z,19.10
2019-04-22T22:28:29.897Z,19.10
2019-04-22T22:30:58.263Z,19.00
2019-04-22T22:33:16.728Z,19.00
2019-04-22T22:35:45.757Z,19.10
2019-04-22T22:38:19.191Z,19.00
2019-04-22T22:40:35.925Z,18.90
2019-04-22T22:43:11.676Z,18.90
2019-04-22T22:45:42.560Z,19.00
2019-04-22T22:48:26.690Z,18.90
2019-04-22T22:50:55.143Z,18.90
2019-04-22T22:53:40.494Z,18.90
2019-04-22T22:56:07.826Z,18.90
2019-04-22T22:58:34.037Z,18.90
2019-04-22T23:01:07.550Z,18.80
2019-04-22T23:03:51.038Z,18.80
2019-04-22T23:06:12.822Z,18.70
2019-04-22T23:08:39.914Z,18.80
2019-04-22T23:11:16.977Z,18.80
2019-04-22T23:13:45.716Z,18.90
2019-04-22T23:16:04.265Z,18.90
2019-04-22T23:18:25.858Z,18.80
2019-04-22T23:20:57.347Z,18.80
2019-04-22T23:23:50.062Z,18.90
2019-04-22T23:26:29.895Z,18.90
2019-04-22T23:29:00.620Z,18.70
2019-04-22T23:31:41.912Z,18.80
2019-04-22T23:34:15.891Z,18.80
2019-04-22T23:36:55.915Z,18.70
2019-04-22T23:39:41.987Z,18.70
2019-04-22T23:42:18.244Z,18.60
2019-04-22T23:44:39.613Z,18.60
2019-04-22T23:47:06.061Z,18.50
2019-04-22T23:49:32.637Z,18.50
2019-04-22T23:52:16.241Z,18.40
2019-04-22T23:54:52.131Z,18.30
2019-04-22T23:57:20.774Z,18.30
2019-04-22T23:59:53.362Z,18.30
